sensor_id;sensor_type;location;lat;lon;timestamp;temperature;humidity
18648;DHT22;9453;50.294;18.644;2023-03-03T05:01:40;-1.90;99.90
18648;DHT22;9453;50.294;18.644;2023-03-03T05:04:08;-2.10;99.90
18648;DHT22;9453;50.294;18.644;2023-03-03T05:06:34;-2.00;99.90
18648;DHT22;9453;50.294;18.644;2023-03-03T05:09:02;-2.20;99.90
18648;DHT22;9453;50.294;18.644;2023-03-03T05:11:29;-2.20;99.90
18648;DHT22;9453;50.294;18.644;2023-03-03T05:13:57;-2.20;99.90
18648;DHT22;9453;50.294;18.644;2023-03-03T05:16:24;-2.30;99.90
18648;DHT22;9453;50.294;18.644;2023-03-03T05:18:52;-2.20;99.90
18648;DHT22;9453;50.294;18.644;2023-03-03T05:21:19;-2.10;99.90
18648;DHT22;9453;50.294;18.644;2023-03-03T05:23:46;-2.20;99.90
18648;DHT22;9453;50.294;18.644;2023-03-03T05:26:13;-2.10;99.90
18648;DHT22;9453;50.294;18.644;2023-03-03T05:28:41;-2.10;99.90
18648;DHT22;9453;50.294;18.644;2023-03-03T05:31:08;-2.10;99.90
18648;DHT22;9453;50.294;18.644;2023-03-03T05:33:35;-2.10;99.90
18648;DHT22;9453;50.294;18.644;2023-03-03T05:36:04;-2.10;99.90
18648;DHT22;9453;50.294;18.644;2023-03-03T05:38:31;-2.10;99.90
18648;DHT22;9453;50.294;18.644;2023-03-03T05:40:58;-2.20;99.90
18648;DHT22;9453;50.294;18.644;2023-03-03T05:43:25;-2.10;99.90
18648;DHT22;9453;50.294;18.644;2023-03-03T05:45:54;-2.10;99.90
18648;DHT22;9453;50.294;18.644;2023-03-03T05:48:22;-2.10;99.90
18648;DHT22;9453;50.294;18.644;2023-03-03T05:50:49;-2.20;99.90
18648;DHT22;9453;50.294;18.644;2023-03-03T05:53:18;-2.40;99.90
18648;DHT22;9453;50.294;18.644;2023-03-03T05:55:45;-2.40;99.90
18648;DHT22;9453;50.294;18.644;2023-03-03T05:58:12;-2.40;99.90
18648;DHT22;9453;50.294;18.644;2023-03-03T06:00:39;-2.20;99.90
18648;DHT22;9453;50.294;18.644;2023-03-03T06:03:08;-2.20;99.90
18648;DHT22;9453;50.294;18.644;2023-03-03T06:05:35;-2.20;99.90
18648;DHT22;9453;50.294;18.644;2023-03-03T06:08:02;-2.10;99.90
18648;DHT22;9453;50.294;18.644;2023-03-03T06:10:30;-2.10;99.90
18648;DHT22;9453;50.294;18.644;2023-03-03T06:12:57;-2.00;99.90
18648;DHT22;9453;50.294;18.644;2023-03-03T06:15:24;-2.00;99.90
18648;DHT22;9453;50.294;18.644;2023-03-03T06:25:40;-2.00;99.90
18648;DHT22;9453;50.294;18.644;2023-03-03T06:28:07;-2.00;99.90
18648;DHT22;9453;50.294;18.644;2023-03-03T06:30:34;-2.00;99.90
18648;DHT22;9453;50.294;18.644;2023-03-03T06:33:01;-2.00;99.90
18648;DHT22;9453;50.294;18.644;2023-03-03T06:35:28;-2.00;99.90
18648;DHT22;9453;50.294;18.644;2023-03-03T06:37:55;-1.90;99.90
18648;DHT22;9453;50.294;18.644;2023-03-03T06:40:22;-2.10;99.90
18648;DHT22;9453;50.294;18.644;2023-03-03T06:42:50;-2.10;99.90
18648;DHT22;9453;50.294;18.644;2023-03-03T06:45:17;-2.00;99.90
18648;DHT22;9453;50.294;18.644;2023-03-03T06:47:44;-2.00;99.90
18648;DHT22;9453;50.294;18.644;2023-03-03T06:50:12;-1.90;99.90
18648;DHT22;9453;50.294;18.644;2023-03-03T06:52:39;-2.00;99.90
18648;DHT22;9453;50.294;18.644;2023-03-03T06:55:11;-1.90;99.90
18648;DHT22;9453;50.294;18.644;2023-03-03T06:57:39;-1.80;99.90
18648;DHT22;9453;50.294;18.644;2023-03-03T07:00:16;-1.90;99.90
18648;DHT22;9453;50.294;18.644;2023-03-03T07:02:46;-1.90;99.90
18648;DHT22;9453;50.294;18.644;2023-03-03T07:05:15;-1.90;99.90
18648;DHT22;9453;50.294;18.644;2023-03-03T07:07:43;-1.70;99.90
18648;DHT22;9453;50.294;18.644;2023-03-03T07:10:21;-1.60;99.90
18648;DHT22;9453;50.294;18.644;2023-03-03T07:12:49;-1.40;99.90
18648;DHT22;9453;50.294;18.644;2023-03-03T07:15:20;-1.10;99.90
18648;DHT22;9453;50.294;18.644;2023-03-03T07:17:49;-1.00;99.90
18648;DHT22;9453;50.294;18.644;2023-03-03T07:20:20;-0.90;99.90
18648;DHT22;9453;50.294;18.644;2023-03-03T07:22:47;-1.00;99.90
18648;DHT22;9453;50.294;18.644;2023-03-03T07:25:21;-1.10;99.90
18648;DHT22;9453;50.294;18.644;2023-03-03T07:27:52;-1.10;99.90
18648;DHT22;9453;50.294;18.644;2023-03-03T07:30:26;-1.10;99.90
18648;DHT22;9453;50.294;18.644;2023-03-03T07:32:54;-1.10;99.90
18648;DHT22;9453;50.294;18.644;2023-03-03T07:35:32;-1.40;99.90
18648;DHT22;9453;50.294;18.644;2023-03-03T07:38:02;-1.10;99.90
18648;DHT22;9453;50.294;18.644;2023-03-03T07:40:38;-0.90;99.90
18648;DHT22;9453;50.294;18.644;2023-03-03T07:43:30;-0.70;99.90
18648;DHT22;9453;50.294;18.644;2023-03-03T07:46:12;-0.50;99.90
18648;DHT22;9453;50.294;18.644;2023-03-03T07:49:08;-0.40;99.90
18648;DHT22;9453;50.294;18.644;2023-03-03T07:51:39;-0.50;99.90
18648;DHT22;9453;50.294;18.644;2023-03-03T07:54:33;-0.60;99.90
18648;DHT22;9453;50.294;18.644;2023-03-03T07:57:10;-0.50;99.90
18648;DHT22;9453;50.294;18.644;2023-03-03T08:05:32;-0.20;99.90
18648;DHT22;9453;50.294;18.644;2023-03-03T08:08:21;-0.10;99.90
18648;DHT22;9453;50.294;18.644;2023-03-03T08:10:52;0.00;99.90
18648;DHT22;9453;50.294;18.644;2023-03-03T08:13:21;0.00;99.90
18648;DHT22;9453;50.294;18.644;2023-03-03T08:15:50;0.00;99.90
18648;DHT22;9453;50.294;18.644;2023-03-03T08:18:28;0.00;99.90
18648;DHT22;9453;50.294;18.644;2023-03-03T08:20:57;0.20;99.90
18648;DHT22;9453;50.294;18.644;2023-03-03T08:23:24;0.20;99.90
18648;DHT22;9453;50.294;18.644;2023-03-03T08:25:52;0.40;99.90
18648;DHT22;9453;50.294;18.644;2023-03-03T08:28:19;0.40;99.90
18648;DHT22;9453;50.294;18.644;2023-03-03T08:30:47;0.30;99.90
18648;DHT22;9453;50.294;18.644;2023-03-03T08:33:16;0.20;99.90
18648;DHT22;9453;50.294;18.644;2023-03-03T08:35:45;0.10;99.90
18648;DHT22;9453;50.294;18.644;2023-03-03T08:38:14;0.00;99.90
18648;DHT22;9453;50.294;18.644;2023-03-03T08:40:42;0.00;99.90
18648;DHT22;9453;50.294;18.644;2023-03-03T08:43:09;-0.10;99.90
18648;DHT22;9453;50.294;18.644;2023-03-03T08:45:39;-0.10;99.90
18648;DHT22;9453;50.294;18.644;2023-03-03T08:48:06;0.10;99.90
18648;DHT22;9453;50.294;18.644;2023-03-03T08:50:33;0.20;99.90
18648;DHT22;9453;50.294;18.644;2023-03-03T08:53:02;0.50;99.90
18648;DHT22;9453;50.294;18.644;2023-03-03T08:55:30;0.60;99.90
18648;DHT22;9453;50.294;18.644;2023-03-03T08:57:57;0.60;99.90
18648;DHT22;9453;50.294;18.644;2023-03-03T09:00:24;0.60;99.90
18648;DHT22;9453;50.294;18.644;2023-03-03T09:02:53;0.70;99.90
18648;DHT22;9453;50.294;18.644;2023-03-03T09:05:22;0.60;99.90
18648;DHT22;9453;50.294;18.644;2023-03-03T09:07:49;0.50;99.90
18648;DHT22;9453;50.294;18.644;2023-03-03T09:10:21;0.60;99.90
18648;DHT22;9453;50.294;18.644;2023-03-03T09:12:52;0.50;99.90
18648;DHT22;9453;50.294;18.644;2023-03-03T09:15:24;0.60;99.90
18648;DHT22;9453;50.294;18.644;2023-03-03T09:17:54;0.50;99.90
18648;DHT22;9453;50.294;18.644;2023-03-03T09:20:32;0.50;99.90
18648;DHT22;9453;50.294;18.644;2023-03-03T09:25:53;0.70;99.90
18648;DHT22;9453;50.294;18.644;2023-03-03T09:28:24;0.70;99.90
18648;DHT22;9453;50.294;18.644;2023-03-03T09:30:57;0.60;99.90
18648;DHT22;9453;50.294;18.644;2023-03-03T09:33:40;0.70;99.90
18648;DHT22;9453;50.294;18.644;2023-03-03T09:36:19;0.70;99.90
18648;DHT22;9453;50.294;18.644;2023-03-03T09:38:49;0.80;99.90
18648;DHT22;9453;50.294;18.644;2023-03-03T09:41:35;0.70;99.90
18648;DHT22;9453;50.294;18.644;2023-03-03T09:46:44;0.70;99.90
18648;DHT22;9453;50.294;18.644;2023-03-03T09:49:26;0.70;99.90
18648;DHT22;9453;50.294;18.644;2023-03-03T09:52:26;0.60;99.90
18648;DHT22;9453;50.294;18.644;2023-03-03T09:55:04;0.50;99.90
18648;DHT22;9453;50.294;18.644;2023-03-03T09:57:48;0.60;99.90
18648;DHT22;9453;50.294;18.644;2023-03-03T10:00:37;0.50;99.90
18648;DHT22;9453;50.294;18.644;2023-03-03T10:03:37;0.60;99.90
18648;DHT22;9453;50.294;18.644;2023-03-03T10:06:17;0.60;99.90
18648;DHT22;9453;50.294;18.644;2023-03-03T10:09:06;0.60;99.90
18648;DHT22;9453;50.294;18.644;2023-03-03T10:11:41;0.60;99.90
18648;DHT22;9453;50.294;18.644;2023-03-03T10:14:26;0.70;99.90
18648;DHT22;9453;50.294;18.644;2023-03-03T10:22:48;0.60;99.90
18648;DHT22;9453;50.294;18.644;2023-03-03T10:25:28;0.60;99.90
18648;DHT22;9453;50.294;18.644;2023-03-03T10:28:12;0.70;99.90
18648;DHT22;9453;50.294;18.644;2023-03-03T10:30:52;0.80;99.90
18648;DHT22;9453;50.294;18.644;2023-03-03T10:33:27;0.80;99.90
18648;DHT22;9453;50.294;18.644;2023-03-03T10:38:58;0.80;99.90
18648;DHT22;9453;50.294;18.644;2023-03-03T10:41:39;0.80;99.90
18648;DHT22;9453;50.294;18.644;2023-03-03T10:44:22;0.80;99.90
18648;DHT22;9453;50.294;18.644;2023-03-03T10:47:09;0.80;99.90
18648;DHT22;9453;50.294;18.644;2023-03-03T10:49:52;0.70;99.90
18648;DHT22;9453;50.294;18.644;2023-03-03T10:52:30;0.70;99.90
18648;DHT22;9453;50.294;18.644;2023-03-03T10:58:07;0.70;99.90
18648;DHT22;9453;50.294;18.644;2023-03-03T11:00:42;0.70;99.90
18648;DHT22;9453;50.294;18.644;2023-03-03T11:06:17;0.70;99.90
18648;DHT22;9453;50.294;18.644;2023-03-03T11:08:51;0.70;99.90
18648;DHT22;9453;50.294;18.644;2023-03-03T11:11:27;0.70;99.90
18648;DHT22;9453;50.294;18.644;2023-03-03T11:14:04;0.70;99.90
18648;DHT22;9453;50.294;18.644;2023-03-03T11:16:52;0.80;99.90
18648;DHT22;9453;50.294;18.644;2023-03-03T11:19:46;0.80;99.90
18648;DHT22;9453;50.294;18.644;2023-03-03T11:22:29;0.80;99.90
18648;DHT22;9453;50.294;18.644;2023-03-03T11:25:07;0.80;99.90
18648;DHT22;9453;50.294;18.644;2023-03-03T11:28:02;0.90;99.90
18648;DHT22;9453;50.294;18.644;2023-03-03T11:30:38;1.00;99.90
18648;DHT22;9453;50.294;18.644;2023-03-03T11:33:13;1.00;99.90
18648;DHT22;9453;50.294;18.644;2023-03-03T11:35:48;1.00;99.90
18648;DHT22;9453;50.294;18.644;2023-03-03T11:38:33;1.00;99.90
18648;DHT22;9453;50.294;18.644;2023-03-03T11:41:07;1.00;99.90
18648;DHT22;9453;50.294;18.644;2023-03-03T11:43:42;0.90;99.90
18648;DHT22;9453;50.294;18.644;2023-03-03T11:46:14;0.90;99.90
18648;DHT22;9453;50.294;18.644;2023-03-03T11:48:47;1.10;99.90
18648;DHT22;9453;50.294;18.644;2023-03-03T11:51:26;1.20;99.90
18648;DHT22;9453;50.294;18.644;2023-03-03T11:54:02;1.50;99.90
18648;DHT22;9453;50.294;18.644;2023-03-03T11:56:34;1.40;99.90
18648;DHT22;9453;50.294;18.644;2023-03-03T11:59:41;1.50;99.90
18648;DHT22;9453;50.294;18.644;2023-03-03T12:05:06;1.60;99.90
18648;DHT22;9453;50.294;18.644;2023-03-03T12:07:44;1.40;99.90
18648;DHT22;9453;50.294;18.644;2023-03-03T12:10:20;1.40;99.90
18648;DHT22;9453;50.294;18.644;2023-03-03T12:12:53;1.60;99.90
18648;DHT22;9453;50.294;18.644;2023-03-03T12:15:27;1.60;99.90
18648;DHT22;9453;50.294;18.644;2023-03-03T12:18:17;1.60;99.90
18648;DHT22;9453;50.294;18.644;2023-03-03T12:20:54;1.60;99.90
18648;DHT22;9453;50.294;18.644;2023-03-03T12:23:45;1.70;99.90
18648;DHT22;9453;50.294;18.644;2023-03-03T12:26:23;1.80;99.90
18648;DHT22;9453;50.294;18.644;2023-03-03T12:28:54;1.80;99.90
18648;DHT22;9453;50.294;18.644;2023-03-03T12:31:32;1.70;99.90
18648;DHT22;9453;50.294;18.644;2023-03-03T12:34:11;1.70;99.90
18648;DHT22;9453;50.294;18.644;2023-03-03T12:36:58;1.70;99.90
18648;DHT22;9453;50.294;18.644;2023-03-03T12:39:42;1.70;99.90
18648;DHT22;9453;50.294;18.644;2023-03-03T12:42:18;1.90;99.90
18648;DHT22;9453;50.294;18.644;2023-03-03T12:44:53;2.10;99.90
18648;DHT22;9453;50.294;18.644;2023-03-03T12:47:28;2.30;99.90
18648;DHT22;9453;50.294;18.644;2023-03-03T12:50:29;2.60;99.90
18648;DHT22;9453;50.294;18.644;2023-03-03T12:53:06;2.40;99.90
18648;DHT22;9453;50.294;18.644;2023-03-03T12:55:46;2.20;99.90
18648;DHT22;9453;50.294;18.644;2023-03-03T12:58:24;2.10;99.90
18648;DHT22;9453;50.294;18.644;2023-03-03T13:01:00;2.40;99.90
18648;DHT22;9453;50.294;18.644;2023-03-03T13:03:37;2.30;99.90
18648;DHT22;9453;50.294;18.644;2023-03-03T13:06:11;2.20;99.90
18648;DHT22;9453;50.294;18.644;2023-03-03T13:08:53;2.30;99.90
18648;DHT22;9453;50.294;18.644;2023-03-03T13:11:33;2.40;99.90
18648;DHT22;9453;50.294;18.644;2023-03-03T13:14:09;2.40;99.90
18648;DHT22;9453;50.294;18.644;2023-03-03T13:16:42;2.40;99.90
18648;DHT22;9453;50.294;18.644;2023-03-03T13:19:15;2.40;99.90
18648;DHT22;9453;50.294;18.644;2023-03-03T13:21:48;2.00;99.90
18648;DHT22;9453;50.294;18.644;2023-03-03T13:24:20;1.80;99.90
18648;DHT22;9453;50.294;18.644;2023-03-03T13:26:53;1.80;99.90
18648;DHT22;9453;50.294;18.644;2023-03-03T13:29:25;1.80;99.90
18648;DHT22;9453;50.294;18.644;2023-03-03T13:31:54;1.80;99.90
18648;DHT22;9453;50.294;18.644;2023-03-03T13:34:36;1.80;99.90
18648;DHT22;9453;50.294;18.644;2023-03-03T13:37:14;1.80;99.90
18648;DHT22;9453;50.294;18.644;2023-03-03T13:39:54;1.90;99.90
18648;DHT22;9453;50.294;18.644;2023-03-03T13:42:28;2.10;99.90
18648;DHT22;9453;50.294;18.644;2023-03-03T13:44:58;2.20;99.90
18648;DHT22;9453;50.294;18.644;2023-03-03T13:47:32;2.40;99.90
18648;DHT22;9453;50.294;18.644;2023-03-03T13:50:21;2.30;99.90
18648;DHT22;9453;50.294;18.644;2023-03-03T13:53:15;2.10;99.90
18648;DHT22;9453;50.294;18.644;2023-03-03T13:55:52;1.90;99.90
18648;DHT22;9453;50.294;18.644;2023-03-03T13:58:28;1.80;99.90
18648;DHT22;9453;50.294;18.644;2023-03-03T14:01:01;1.90;99.90
18648;DHT22;9453;50.294;18.644;2023-03-03T14:03:45;2.00;99.90
18648;DHT22;9453;50.294;18.644;2023-03-03T14:06:18;2.00;99.90
18648;DHT22;9453;50.294;18.644;2023-03-03T14:11:50;1.90;99.90
18648;DHT22;9453;50.294;18.644;2023-03-03T14:14:41;1.70;99.90
18648;DHT22;9453;50.294;18.644;2023-03-03T14:17:16;1.60;99.90
18648;DHT22;9453;50.294;18.644;2023-03-03T14:19:47;1.60;99.90
18648;DHT22;9453;50.294;18.644;2023-03-03T14:22:21;1.60;99.90
18648;DHT22;9453;50.294;18.644;2023-03-03T14:25:03;1.50;99.90
18648;DHT22;9453;50.294;18.644;2023-03-03T14:27:37;1.50;99.90
18648;DHT22;9453;50.294;18.644;2023-03-03T14:30:31;1.50;99.90
18648;DHT22;9453;50.294;18.644;2023-03-03T14:33:15;1.50;99.90
18648;DHT22;9453;50.294;18.644;2023-03-03T14:35:49;1.50;99.90
18648;DHT22;9453;50.294;18.644;2023-03-03T14:38:19;1.40;99.90
18648;DHT22;9453;50.294;18.644;2023-03-03T14:40:48;1.40;99.90
18648;DHT22;9453;50.294;18.644;2023-03-03T14:43:21;1.50;99.90
18648;DHT22;9453;50.294;18.644;2023-03-03T14:45:52;1.50;99.90
18648;DHT22;9453;50.294;18.644;2023-03-03T14:48:22;1.40;99.90
18648;DHT22;9453;50.294;18.644;2023-03-03T14:50:51;1.40;99.90
18648;DHT22;9453;50.294;18.644;2023-03-03T14:53:29;1.40;99.90
18648;DHT22;9453;50.294;18.644;2023-03-03T14:56:15;1.60;99.90
18648;DHT22;9453;50.294;18.644;2023-03-03T14:58:43;1.60;99.90
18648;DHT22;9453;50.294;18.644;2023-03-03T15:01:21;1.50;99.90
18648;DHT22;9453;50.294;18.644;2023-03-03T15:04:00;1.40;99.90
18648;DHT22;9453;50.294;18.644;2023-03-03T15:06:36;1.30;99.90
18648;DHT22;9453;50.294;18.644;2023-03-03T15:09:31;1.30;99.90
18648;DHT22;9453;50.294;18.644;2023-03-03T15:12:17;1.20;99.90
18648;DHT22;9453;50.294;18.644;2023-03-03T15:14:46;1.30;99.90
18648;DHT22;9453;50.294;18.644;2023-03-03T15:17:25;1.30;99.90
18648;DHT22;9453;50.294;18.644;2023-03-03T15:20:20;1.30;99.90
18648;DHT22;9453;50.294;18.644;2023-03-03T15:22:51;1.30;99.90
18648;DHT22;9453;50.294;18.644;2023-03-03T15:25:25;1.30;99.90
18648;DHT22;9453;50.294;18.644;2023-03-03T15:28:07;1.40;99.90
18648;DHT22;9453;50.294;18.644;2023-03-03T15:30:42;1.50;99.90
18648;DHT22;9453;50.294;18.644;2023-03-03T15:33:21;1.60;99.90
18648;DHT22;9453;50.294;18.644;2023-03-03T15:35:58;1.50;99.90
18648;DHT22;9453;50.294;18.644;2023-03-03T15:38:36;1.40;99.90
18648;DHT22;9453;50.294;18.644;2023-03-03T15:41:23;1.20;99.90
18648;DHT22;9453;50.294;18.644;2023-03-03T15:44:08;1.20;99.90
18648;DHT22;9453;50.294;18.644;2023-03-03T15:46:47;1.10;99.90
18648;DHT22;9453;50.294;18.644;2023-03-03T15:49:40;1.20;99.90
18648;DHT22;9453;50.294;18.644;2023-03-03T15:52:21;1.30;99.90
18648;DHT22;9453;50.294;18.644;2023-03-03T15:55:04;1.20;99.90
18648;DHT22;9453;50.294;18.644;2023-03-03T15:57:41;1.10;99.90
18648;DHT22;9453;50.294;18.644;2023-03-03T16:00:29;1.10;99.90
18648;DHT22;9453;50.294;18.644;2023-03-03T16:03:04;1.10;99.90
18648;DHT22;9453;50.294;18.644;2023-03-03T16:05:40;1.10;99.90
18648;DHT22;9453;50.294;18.644;2023-03-03T16:08:12;1.20;99.90
18648;DHT22;9453;50.294;18.644;2023-03-03T16:10:49;1.20;99.90
18648;DHT22;9453;50.294;18.644;2023-03-03T16:13:30;1.20;99.90
18648;DHT22;9453;50.294;18.644;2023-03-03T16:16:07;1.10;99.90
18648;DHT22;9453;50.294;18.644;2023-03-03T16:18:45;1.30;99.90
18648;DHT22;9453;50.294;18.644;2023-03-03T16:21:27;1.10;99.90
18648;DHT22;9453;50.294;18.644;2023-03-03T16:24:00;1.20;99.90
18648;DHT22;9453;50.294;18.644;2023-03-03T16:26:40;1.20;99.90
18648;DHT22;9453;50.294;18.644;2023-03-03T16:29:32;1.30;99.90
18648;DHT22;9453;50.294;18.644;2023-03-03T16:32:04;1.30;99.90
18648;DHT22;9453;50.294;18.644;2023-03-03T16:34:41;1.40;99.90
18648;DHT22;9453;50.294;18.644;2023-03-03T16:37:17;1.20;99.90
18648;DHT22;9453;50.294;18.644;2023-03-03T16:39:52;1.10;99.90
18648;DHT22;9453;50.294;18.644;2023-03-03T16:42:25;1.10;99.90
18648;DHT22;9453;50.294;18.644;2023-03-03T16:45:12;1.00;99.90
18648;DHT22;9453;50.294;18.644;2023-03-03T16:48:14;1.00;99.90
18648;DHT22;9453;50.294;18.644;2023-03-03T16:50:47;1.00;99.90
18648;DHT22;9453;50.294;18.644;2023-03-03T16:53:32;1.00;99.90
18648;DHT22;9453;50.294;18.644;2023-03-03T16:56:05;1.00;99.90
18648;DHT22;9453;50.294;18.644;2023-03-03T16:58:43;1.10;99.90
18648;DHT22;9453;50.294;18.644;2023-03-03T17:01:19;1.20;99.90
18648;DHT22;9453;50.294;18.644;2023-03-03T17:03:59;1.30;99.90
18648;DHT22;9453;50.294;18.644;2023-03-03T17:06:32;1.30;99.90
18648;DHT22;9453;50.294;18.644;2023-03-03T17:12:13;1.50;99.90
18648;DHT22;9453;50.294;18.644;2023-03-03T17:18:02;1.70;99.90
18648;DHT22;9453;50.294;18.644;2023-03-03T17:20:36;1.60;99.90
18648;DHT22;9453;50.294;18.644;2023-03-03T17:23:28;1.60;99.90
18648;DHT22;9453;50.294;18.644;2023-03-03T17:26:06;1.80;99.90
18648;DHT22;9453;50.294;18.644;2023-03-03T17:28:44;1.60;99.90
18648;DHT22;9453;50.294;18.644;2023-03-03T17:31:20;1.50;99.90
18648;DHT22;9453;50.294;18.644;2023-03-03T17:34:02;1.50;99.90
18648;DHT22;9453;50.294;18.644;2023-03-03T17:36:46;1.50;99.90
18648;DHT22;9453;50.294;18.644;2023-03-03T17:39:36;1.60;99.90
18648;DHT22;9453;50.294;18.644;2023-03-03T17:42:14;1.50;99.90
18648;DHT22;9453;50.294;18.644;2023-03-03T17:44:49;1.30;99.90
18648;DHT22;9453;50.294;18.644;2023-03-03T17:47:28;1.20;99.90
18648;DHT22;9453;50.294;18.644;2023-03-03T17:50:11;1.00;99.90
18648;DHT22;9453;50.294;18.644;2023-03-03T17:55:42;1.20;99.90
18648;DHT22;9453;50.294;18.644;2023-03-03T17:58:39;1.30;99.90
18648;DHT22;9453;50.294;18.644;2023-03-03T18:01:21;1.30;99.90
18648;DHT22;9453;50.294;18.644;2023-03-03T18:04:17;1.30;99.90
18648;DHT22;9453;50.294;18.644;2023-03-03T18:07:15;1.30;99.90
18648;DHT22;9453;50.294;18.644;2023-03-03T18:12:46;1.20;99.90
18648;DHT22;9453;50.294;18.644;2023-03-03T18:15:36;1.20;99.90
18648;DHT22;9453;50.294;18.644;2023-03-03T18:18:20;1.00;99.90
18648;DHT22;9453;50.294;18.644;2023-03-03T18:21:04;1.00;99.90
18648;DHT22;9453;50.294;18.644;2023-03-03T18:23:36;1.00;99.90
18648;DHT22;9453;50.294;18.644;2023-03-03T18:26:27;1.00;99.90
18648;DHT22;9453;50.294;18.644;2023-03-03T18:29:10;1.20;99.90
18648;DHT22;9453;50.294;18.644;2023-03-03T18:31:48;1.20;99.90
18648;DHT22;9453;50.294;18.644;2023-03-03T18:34:30;1.30;99.90
18648;DHT22;9453;50.294;18.644;2023-03-03T18:37:01;1.30;99.90
18648;DHT22;9453;50.294;18.644;2023-03-03T18:39:40;1.40;99.90
18648;DHT22;9453;50.294;18.644;2023-03-03T18:44:55;1.60;99.90
18648;DHT22;9453;50.294;18.644;2023-03-03T18:47:56;1.70;99.90
18648;DHT22;9453;50.294;18.644;2023-03-03T18:50:32;1.80;99.90
18648;DHT22;9453;50.294;18.644;2023-03-03T18:53:21;1.80;99.90
18648;DHT22;9453;50.294;18.644;2023-03-03T18:55:51;1.80;99.90
18648;DHT22;9453;50.294;18.644;2023-03-03T18:58:34;1.90;99.90
18648;DHT22;9453;50.294;18.644;2023-03-03T19:01:39;1.80;99.90
18648;DHT22;9453;50.294;18.644;2023-03-03T19:04:20;1.90;99.90
18648;DHT22;9453;50.294;18.644;2023-03-03T19:07:10;1.90;99.90
18648;DHT22;9453;50.294;18.644;2023-03-03T19:09:50;1.90;99.90
18648;DHT22;9453;50.294;18.644;2023-03-03T19:15:49;2.00;99.90
18648;DHT22;9453;50.294;18.644;2023-03-03T19:18:20;2.10;99.90
18648;DHT22;9453;50.294;18.644;2023-03-03T19:20:57;2.10;99.90
18648;DHT22;9453;50.294;18.644;2023-03-03T19:23:49;2.20;99.90
18648;DHT22;9453;50.294;18.644;2023-03-03T19:29:50;2.00;99.90
18648;DHT22;9453;50.294;18.644;2023-03-03T19:32:28;2.00;99.90
18648;DHT22;9453;50.294;18.644;2023-03-03T19:35:03;2.10;99.90
18648;DHT22;9453;50.294;18.644;2023-03-03T19:37:43;1.90;99.90
18648;DHT22;9453;50.294;18.644;2023-03-03T19:40:19;1.90;99.90
18648;DHT22;9453;50.294;18.644;2023-03-03T19:42:56;1.90;99.90
18648;DHT22;9453;50.294;18.644;2023-03-03T19:45:35;1.90;99.90
18648;DHT22;9453;50.294;18.644;2023-03-03T19:48:14;1.90;99.90
18648;DHT22;9453;50.294;18.644;2023-03-03T19:50:48;2.00;99.90
18648;DHT22;9453;50.294;18.644;2023-03-03T19:53:27;2.00;99.90
18648;DHT22;9453;50.294;18.644;2023-03-03T19:56:14;2.00;99.90
18648;DHT22;9453;50.294;18.644;2023-03-03T19:58:53;2.00;99.90
18648;DHT22;9453;50.294;18.644;2023-03-03T20:01:25;1.90;99.90
18648;DHT22;9453;50.294;18.644;2023-03-03T20:04:41;1.90;99.90
18648;DHT22;9453;50.294;18.644;2023-03-03T20:07:25;1.80;99.90
18648;DHT22;9453;50.294;18.644;2023-03-03T20:10:07;1.70;99.90
18648;DHT22;9453;50.294;18.644;2023-03-03T20:12:52;1.70;99.90
18648;DHT22;9453;50.294;18.644;2023-03-03T20:15:28;1.80;99.90
18648;DHT22;9453;50.294;18.644;2023-03-03T20:18:19;1.70;99.90
18648;DHT22;9453;50.294;18.644;2023-03-03T20:20:58;1.40;99.90
18648;DHT22;9453;50.294;18.644;2023-03-03T20:23:31;1.30;99.90
18648;DHT22;9453;50.294;18.644;2023-03-03T20:26:08;1.20;99.90
18648;DHT22;9453;50.294;18.644;2023-03-03T20:29:05;1.00;99.90
18648;DHT22;9453;50.294;18.644;2023-03-03T20:31:40;0.90;99.90
18648;DHT22;9453;50.294;18.644;2023-03-03T20:34:13;1.00;99.90
18648;DHT22;9453;50.294;18.644;2023-03-03T20:36:54;1.10;99.90
18648;DHT22;9453;50.294;18.644;2023-03-03T20:39:34;1.10;99.90
18648;DHT22;9453;50.294;18.644;2023-03-03T20:42:12;1.10;99.90
18648;DHT22;9453;50.294;18.644;2023-03-03T20:44:57;1.00;99.90
18648;DHT22;9453;50.294;18.644;2023-03-03T20:47:36;1.10;99.90
18648;DHT22;9453;50.294;18.644;2023-03-03T20:50:14;1.30;99.90
18648;DHT22;9453;50.294;18.644;2023-03-03T20:52:55;1.20;99.90
18648;DHT22;9453;50.294;18.644;2023-03-03T20:57:57;1.50;99.90
18648;DHT22;9453;50.294;18.644;2023-03-03T21:00:33;1.60;99.90
18648;DHT22;9453;50.294;18.644;2023-03-03T21:03:09;1.60;99.90
18648;DHT22;9453;50.294;18.644;2023-03-03T21:05:55;1.70;99.90
18648;DHT22;9453;50.294;18.644;2023-03-03T21:08:40;1.70;99.90
18648;DHT22;9453;50.294;18.644;2023-03-03T21:11:08;1.70;99.90
18648;DHT22;9453;50.294;18.644;2023-03-03T21:13:39;1.70;99.90
18648;DHT22;9453;50.294;18.644;2023-03-03T21:16:10;1.80;99.90
18648;DHT22;9453;50.294;18.644;2023-03-03T21:18:38;1.80;99.90
18648;DHT22;9453;50.294;18.644;2023-03-03T21:21:05;1.80;99.90
18648;DHT22;9453;50.294;18.644;2023-03-03T21:23:33;1.80;99.90
18648;DHT22;9453;50.294;18.644;2023-03-03T21:26:01;1.80;99.90
18648;DHT22;9453;50.294;18.644;2023-03-03T21:28:30;1.80;99.90
18648;DHT22;9453;50.294;18.644;2023-03-03T21:31:12;1.90;99.90
18648;DHT22;9453;50.294;18.644;2023-03-03T21:33:43;1.80;99.90
18648;DHT22;9453;50.294;18.644;2023-03-03T21:36:11;1.70;99.90
18648;DHT22;9453;50.294;18.644;2023-03-03T21:38:38;1.70;99.90
18648;DHT22;9453;50.294;18.644;2023-03-03T21:41:07;1.60;99.90
18648;DHT22;9453;50.294;18.644;2023-03-03T21:43:35;1.60;99.90
18648;DHT22;9453;50.294;18.644;2023-03-03T21:46:04;1.60;99.90
18648;DHT22;9453;50.294;18.644;2023-03-03T21:48:31;1.60;99.90
18648;DHT22;9453;50.294;18.644;2023-03-03T21:50:58;1.60;99.90
18648;DHT22;9453;50.294;18.644;2023-03-03T21:53:25;1.60;99.90
18648;DHT22;9453;50.294;18.644;2023-03-03T21:55:54;1.70;99.90
18648;DHT22;9453;50.294;18.644;2023-03-03T21:58:21;1.70;99.90
18648;DHT22;9453;50.294;18.644;2023-03-03T22:00:48;1.70;99.90
18648;DHT22;9453;50.294;18.644;2023-03-03T22:03:17;1.80;99.90
18648;DHT22;9453;50.294;18.644;2023-03-03T22:05:45;1.80;99.90
18648;DHT22;9453;50.294;18.644;2023-03-03T22:08:13;1.70;99.90
18648;DHT22;9453;50.294;18.644;2023-03-03T22:10:43;1.60;99.90
18648;DHT22;9453;50.294;18.644;2023-03-03T22:13:16;1.70;99.90
18648;DHT22;9453;50.294;18.644;2023-03-03T22:15:45;1.60;99.90
18648;DHT22;9453;50.294;18.644;2023-03-03T22:18:12;1.50;99.90
18648;DHT22;9453;50.294;18.644;2023-03-03T22:20:40;1.50;99.90
18648;DHT22;9453;50.294;18.644;2023-03-03T22:23:07;1.50;99.90
18648;DHT22;9453;50.294;18.644;2023-03-03T22:25:34;1.50;99.90
18648;DHT22;9453;50.294;18.644;2023-03-03T22:28:01;1.50;99.90
18648;DHT22;9453;50.294;18.644;2023-03-03T22:30:28;1.60;99.90
18648;DHT22;9453;50.294;18.644;2023-03-03T22:32:55;1.60;99.90
18648;DHT22;9453;50.294;18.644;2023-03-03T22:35:22;1.70;99.90
18648;DHT22;9453;50.294;18.644;2023-03-03T22:37:50;1.60;99.90
18648;DHT22;9453;50.294;18.644;2023-03-03T22:40:17;1.60;99.90
18648;DHT22;9453;50.294;18.644;2023-03-03T22:42:44;1.50;99.90